createdAt,value
2023-01-11T00:04:05.368Z,56.80
2023-01-11T00:09:08.745Z,48.20
2023-01-11T00:14:12.151Z,43.30
2023-01-11T00:19:15.389Z,46.10
2023-01-11T00:24:18.801Z,40.20
2023-01-11T00:29:21.982Z,45.30
2023-01-11T00:34:25.295Z,37.60
2023-01-11T00:39:28.531Z,45.40
2023-01-11T00:44:50.763Z,30.20
2023-01-11T00:49:53.964Z,33.80
2023-01-11T00:54:57.123Z,36.30
2023-01-11T01:00:00.970Z,36.20
2023-01-11T01:05:04.832Z,33.90
2023-01-11T01:10:09.865Z,32.60
2023-01-11T01:15:13.191Z,36.80
2023-01-11T01:20:16.540Z,28.30
2023-01-11T01:25:20.553Z,38.20
2023-01-11T01:30:23.744Z,34.30
2023-01-11T01:35:26.973Z,36.40
2023-01-11T01:40:30.427Z,41.60
2023-01-11T01:45:33.649Z,40.80
2023-01-11T01:50:47.343Z,39.10
2023-01-11T01:55:55.171Z,44.80
2023-01-11T02:01:18.350Z,39.90
2023-01-11T02:06:23.336Z,43.30
2023-01-11T02:11:30.117Z,34.80
2023-01-11T02:16:34.239Z,33.10
2023-01-11T02:22:04.835Z,44.60
2023-01-11T02:27:08.056Z,39.50
2023-01-11T02:32:31.443Z,44.10
2023-01-11T02:37:53.638Z,38.90
2023-01-11T02:43:29.453Z,41.30
2023-01-11T02:49:00.619Z,30.90
2023-01-11T02:54:09.346Z,36.40
2023-01-11T02:59:18.009Z,38.20
2023-01-11T03:04:34.657Z,40.80
2023-01-11T03:09:59.490Z,43.60
2023-01-11T03:15:17.577Z,42.50
2023-01-11T03:20:27.092Z,48.00
2023-01-11T03:25:56.130Z,40.50
2023-01-11T03:31:08.008Z,32.30
2023-01-11T03:36:22.143Z,31.10
2023-01-11T03:41:30.159Z,29.00
2023-01-11T03:46:39.136Z,34.00
2023-01-11T03:51:44.996Z,41.10
2023-01-11T03:56:54.070Z,40.10
2023-01-11T04:01:58.236Z,33.10
2023-01-11T04:07:02.497Z,33.80
2023-01-11T04:12:06.577Z,35.80
2023-01-11T04:17:09.825Z,32.70
2023-01-11T04:22:13.080Z,34.80
2023-01-11T04:27:16.275Z,27.10
2023-01-11T04:32:20.255Z,29.30
2023-01-11T04:37:24.011Z,31.90
2023-01-11T04:42:27.221Z,26.80
2023-01-11T04:47:30.423Z,23.60
2023-01-11T04:52:33.686Z,31.80
2023-01-11T04:57:37.307Z,27.40
2023-01-11T05:02:41.124Z,30.20
2023-01-11T05:07:44.520Z,27.10
2023-01-11T05:12:47.751Z,27.40
2023-01-11T05:17:51.040Z,28.60
2023-01-11T05:22:54.293Z,33.30
2023-01-11T05:27:57.557Z,33.70
2023-01-11T05:33:02.719Z,30.70
2023-01-11T05:38:06.658Z,33.30
2023-01-11T05:43:09.950Z,25.90
2023-01-11T05:48:13.283Z,33.50
2023-01-11T05:53:16.647Z,30.80
2023-01-11T05:58:20.040Z,32.50
2023-01-11T06:03:26.019Z,33.70
2023-01-11T06:08:29.373Z,30.20
2023-01-11T06:13:34.440Z,25.20
2023-01-11T06:18:40.765Z,25.20
2023-01-11T06:23:46.482Z,33.50
2023-01-11T06:28:50.915Z,30.40
2023-01-11T06:33:57.183Z,38.00
2023-01-11T06:45:20.109Z,30.80
2023-01-11T06:50:23.901Z,38.80
2023-01-11T06:55:28.847Z,31.80
2023-01-11T07:00:33.541Z,35.50
2023-01-11T07:05:37.489Z,31.90
2023-01-11T07:10:48.904Z,40.20
2023-01-11T07:16:10.348Z,38.30
2023-01-11T07:21:19.671Z,42.90
2023-01-11T07:26:27.018Z,42.10
2023-01-11T07:31:33.206Z,45.80
2023-01-11T07:36:41.847Z,46.30
2023-01-11T07:42:03.888Z,39.10
2023-01-11T07:47:07.181Z,40.10
2023-01-11T07:52:11.085Z,36.70
2023-01-11T07:57:14.407Z,40.70
2023-01-11T08:02:17.787Z,37.50
2023-01-11T08:07:21.844Z,37.80
2023-01-11T08:12:45.215Z,35.50
2023-01-11T08:17:48.563Z,32.70
2023-01-11T08:22:51.886Z,32.20
2023-01-11T08:27:55.217Z,29.50
2023-01-11T08:33:01.404Z,26.20
2023-01-11T08:38:04.845Z,26.70
2023-01-11T08:43:08.757Z,27.80
2023-01-11T08:48:13.310Z,26.60
2023-01-11T08:53:17.173Z,32.60
2023-01-11T08:58:21.691Z,28.70
2023-01-11T09:03:25.027Z,24.70
2023-01-11T09:08:29.452Z,25.70
2023-01-11T09:13:32.831Z,27.80
2023-01-11T09:18:36.002Z,25.90
2023-01-11T09:23:39.374Z,25.00
2023-01-11T09:28:42.738Z,23.90
2023-01-11T09:33:46.282Z,26.80
2023-01-11T09:38:53.057Z,27.20
2023-01-11T09:44:25.328Z,26.30
2023-01-11T09:49:42.181Z,26.50
2023-01-11T09:54:47.523Z,26.10
2023-01-11T10:00:05.680Z,25.10
2023-01-11T10:05:31.299Z,24.90
2023-01-11T10:18:27.590Z,22.30
2023-01-11T10:22:00.826Z,22.70
2023-01-11T10:27:12.739Z,23.40
2023-01-11T10:32:44.275Z,19.70
2023-01-11T10:38:17.364Z,24.50
2023-01-11T10:43:22.982Z,18.70
2023-01-11T10:48:35.072Z,22.00
2023-01-11T10:54:12.723Z,21.90
2023-01-11T10:59:35.689Z,18.50
2023-01-11T11:04:53.988Z,16.10
2023-01-11T11:10:08.478Z,17.20
2023-01-11T11:15:15.582Z,19.10
2023-01-11T11:20:22.132Z,18.10
2023-01-11T11:25:33.937Z,18.60
2023-01-11T11:30:46.342Z,19.00
2023-01-11T11:36:06.559Z,17.00
2023-01-11T11:41:11.404Z,20.00
2023-01-11T11:46:18.877Z,18.80
2023-01-11T11:51:24.489Z,19.10
2023-01-11T11:56:33.828Z,16.40
2023-01-11T12:01:40.570Z,17.50
2023-01-11T12:06:46.459Z,18.30
2023-01-11T12:11:50.375Z,18.70
2023-01-11T12:16:53.789Z,16.60
2023-01-11T12:22:19.959Z,15.60
2023-01-11T12:27:32.556Z,17.40
2023-01-11T12:33:12.874Z,16.30
2023-01-11T12:38:16.159Z,13.90
2023-01-11T12:43:41.861Z,15.60
2023-01-11T12:49:05.667Z,15.60
2023-01-11T12:54:21.155Z,14.80
2023-01-11T12:59:49.006Z,15.10
2023-01-11T13:05:13.745Z,16.70
2023-01-11T13:10:31.486Z,13.20
2023-01-11T13:15:49.328Z,14.80
2023-01-11T13:21:02.118Z,13.70
2023-01-11T13:26:32.222Z,20.20
2023-01-11T13:31:36.861Z,16.90
2023-01-11T13:36:48.309Z,17.60
2023-01-11T13:41:57.259Z,18.60
2023-01-11T13:47:13.919Z,21.10
2023-01-11T13:52:41.702Z,14.10
2023-01-11T13:58:15.664Z,19.20
2023-01-11T14:03:22.032Z,15.00
2023-01-11T14:08:49.864Z,19.60
2023-01-11T14:14:18.404Z,16.80
2023-01-11T14:19:35.113Z,21.70
2023-01-11T14:24:46.936Z,19.80
2023-01-11T14:30:18.412Z,20.10
2023-01-11T14:36:12.915Z,20.70
2023-01-11T14:42:00.594Z,21.20
2023-01-11T14:47:59.083Z,24.70
2023-01-11T14:53:04.342Z,20.40
2023-01-11T14:58:18.831Z,27.30
2023-01-11T15:03:22.029Z,20.60
2023-01-11T15:08:34.709Z,29.60
2023-01-11T15:13:49.798Z,28.40
2023-01-11T15:18:54.354Z,23.10
2023-01-11T15:23:58.974Z,26.50
2023-01-11T15:29:03.256Z,24.70
2023-01-11T15:34:39.731Z,24.10
2023-01-11T15:39:51.910Z,19.10
2023-01-11T15:45:24.591Z,26.80
2023-01-11T15:50:44.006Z,18.70
2023-01-11T15:56:06.226Z,27.00
2023-01-11T16:01:29.159Z,21.30
2023-01-11T16:06:51.401Z,26.10
2023-01-11T16:12:49.472Z,22.90
2023-01-11T16:17:53.890Z,23.90
2023-01-11T16:23:00.913Z,25.10
2023-01-11T16:28:06.780Z,21.10
2023-01-11T16:33:31.763Z,24.00
2023-01-11T16:39:14.131Z,21.90
2023-01-11T16:44:37.136Z,24.80
2023-01-11T16:49:43.654Z,19.10
2023-01-11T16:54:47.247Z,21.20
2023-01-11T17:00:03.040Z,21.30
2023-01-11T17:05:23.871Z,22.60
2023-01-11T17:10:30.070Z,22.10
2023-01-11T17:16:01.521Z,22.30
2023-01-11T17:21:05.341Z,25.30
2023-01-11T17:26:17.133Z,25.60
2023-01-11T17:31:25.917Z,25.00
2023-01-11T17:36:30.732Z,25.30
2023-01-11T17:41:53.827Z,17.40
2023-01-11T17:46:57.316Z,21.50
2023-01-11T17:52:18.175Z,24.80
2023-01-11T17:57:21.681Z,27.10
2023-01-11T18:02:25.495Z,35.10
2023-01-11T18:07:28.901Z,24.90
2023-01-11T18:12:34.424Z,27.20
2023-01-11T18:17:40.659Z,27.70
2023-01-11T18:23:05.297Z,26.50
2023-01-11T18:28:12.085Z,27.80
2023-01-11T18:33:21.049Z,27.70
2023-01-11T18:38:36.069Z,28.40
2023-01-11T18:43:39.442Z,31.30
2023-01-11T18:48:43.357Z,33.10
2023-01-11T18:53:46.690Z,27.90
2023-01-11T18:58:50.105Z,29.90
2023-01-11T19:03:53.584Z,36.80
2023-01-11T19:08:56.909Z,33.70
2023-01-11T19:14:00.274Z,31.70
2023-01-11T19:19:03.540Z,33.10
2023-01-11T19:24:07.167Z,33.30
2023-01-11T19:29:11.577Z,36.60
2023-01-11T19:34:15.573Z,25.10
2023-01-11T19:39:19.721Z,36.00
2023-01-11T19:44:34.932Z,36.10
2023-01-11T19:49:39.552Z,32.60
2023-01-11T19:54:43.520Z,40.20
2023-01-11T19:59:47.982Z,36.40
2023-01-11T20:04:51.993Z,29.90
2023-01-11T20:09:55.273Z,33.30
2023-01-11T20:15:02.321Z,33.10
2023-01-11T20:20:07.037Z,38.40
2023-01-11T20:25:12.723Z,36.10
2023-01-11T20:30:16.358Z,34.60
2023-01-11T20:35:20.395Z,36.40
2023-01-11T20:40:23.601Z,36.60
2023-01-11T20:45:29.529Z,34.50
2023-01-11T20:50:34.051Z,39.40
2023-01-11T20:55:37.395Z,36.20
2023-01-11T21:00:40.769Z,37.10
2023-01-11T21:05:44.298Z,36.00
2023-01-11T21:10:47.567Z,33.10
2023-01-11T21:15:51.341Z,35.70
2023-01-11T21:20:54.618Z,31.10
2023-01-11T21:25:57.973Z,34.10
2023-01-11T21:31:04.545Z,28.40
2023-01-11T21:36:12.495Z,31.00
2023-01-11T21:41:44.869Z,30.30
2023-01-11T21:46:49.390Z,28.20
2023-01-11T21:51:53.357Z,30.20
2023-01-11T21:56:56.715Z,32.40
2023-01-11T22:02:00.682Z,32.50
2023-01-11T22:07:05.345Z,26.00
2023-01-11T22:12:08.761Z,31.30
2023-01-11T22:17:12.562Z,32.80
2023-01-11T22:22:16.827Z,29.40
2023-01-11T22:27:20.267Z,29.20
2023-01-11T22:32:23.718Z,30.10
2023-01-11T22:37:27.104Z,32.40
2023-01-11T22:42:30.394Z,27.20
2023-01-11T22:47:34.128Z,28.50
2023-01-11T22:52:40.240Z,29.40
2023-01-11T22:57:43.456Z,27.10
2023-01-11T23:02:46.739Z,25.10
2023-01-11T23:07:50.494Z,25.70
2023-01-11T23:13:12.625Z,30.30
2023-01-11T23:18:15.884Z,25.10
2023-01-11T23:23:19.156Z,20.50
2023-01-11T23:28:22.476Z,26.10
2023-01-11T23:33:27.091Z,29.70
2023-01-11T23:38:33.241Z,25.60
2023-01-11T23:43:39.736Z,31.50
2023-01-11T23:48:43.067Z,29.20
2023-01-11T23:53:46.515Z,26.90
2023-01-11T23:58:49.768Z,24.10
